Time;durP1;ratioP1;P1;durP2;ratioP2;P2;SDS_P1;SDS_P2;PMS_P1;PMS_P2;Temp;Humidity;BMP_temperature;BMP_pressure;BME280_temperature;BME280_humidity;BME280_pressure;Samples;Min_cycle;Max_cycle;Signal;HPM_P1;HPM_P2
2022/04/22 00:00:19;;;;;;;1.47;1.30;;;4.80;99.90;;;5.91;100.00;94136.79;647759;212;31536;-74
2022/04/22 00:03:02;;;;;;;2.70;0.95;;;4.90;99.90;;;6.02;100.00;94143.16;647773;212;31609;-75
2022/04/22 00:05:43;;;;;;;1.40;1.20;;;4.90;99.90;;;6.00;100.00;94137.11;646772;212;31562;-75
2022/04/22 00:08:25;;;;;;;2.08;1.48;;;4.80;99.90;;;6.02;100.00;94135.14;637447;212;31694;-76
2022/04/22 00:14:03;;;;;;;1.60;1.50;;;4.80;99.90;;;5.93;100.00;94127.26;646401;216;42144;-74
2022/04/22 00:16:50;;;;;;;2.67;1.30;;;4.70;99.90;;;6.09;100.00;94124.14;647887;212;42170;-75
2022/04/22 00:19:32;;;;;;;2.55;1.00;;;4.80;99.90;;;6.13;100.00;94116.34;619947;222;32460;-75
2022/04/22 00:22:17;;;;;;;0.95;0.90;;;4.80;99.90;;;6.10;100.00;94112.48;647975;216;42773;-75
2022/04/22 00:25:00;;;;;;;1.70;1.60;;;4.90;99.90;;;6.16;100.00;94115.33;647941;212;31544;-74
2022/04/22 00:27:42;;;;;;;2.03;1.67;;;4.90;99.90;;;6.05;100.00;94114.98;644758;216;31577;-76
2022/04/22 00:30:24;;;;;;;1.75;1.33;;;4.80;99.90;;;6.04;100.00;94105.49;647247;216;31635;-75
2022/04/22 00:35:51;;;;;;;4.12;2.60;;;4.90;99.90;;;5.97;100.00;94100.03;620352;226;32143;-74
2022/04/22 00:38:35;;;;;;;1.85;1.45;;;4.80;99.90;;;5.97;100.00;94095.23;646904;212;31751;-74
2022/04/22 00:41:18;;;;;;;2.80;1.60;;;4.70;99.90;;;5.83;100.00;94096.84;647150;212;31500;-74
2022/04/22 00:43:59;;;;;;;1.50;1.40;;;4.60;99.90;;;5.80;100.00;94094.06;646916;212;31918;-75
2022/04/22 00:46:41;;;;;;;2.37;2.28;;;4.70;99.90;;;5.74;100.00;94089.28;647918;216;31552;-74
2022/04/22 00:49:26;;;;;;;4.25;2.90;;;4.60;99.90;;;5.70;100.00;94084.45;646725;216;31764;-74
2022/04/22 00:52:08;;;;;;;2.97;1.50;;;4.50;99.90;;;5.61;100.00;94083.91;647946;212;31542;-74
2022/04/22 00:54:49;;;;;;;2.03;1.80;;;4.50;99.90;;;5.54;100.00;94086.48;646723;212;31524;-75
2022/04/22 00:57:32;;;;;;;1.10;0.93;;;4.40;99.90;;;5.46;100.00;94080.19;646506;212;31655;-74
2022/04/22 01:00:14;;;;;;;1.50;1.20;;;4.30;99.90;;;5.55;100.00;94074.58;646514;216;32142;-74
2022/04/22 01:02:56;;;;;;;1.17;1.08;;;4.30;99.90;;;5.53;100.00;94073.55;647299;212;31683;-75
2022/04/22 01:11:35;;;;;;;1.58;1.30;;;4.10;99.90;;;5.33;100.00;94063.05;647187;212;31549;-74
2022/04/22 01:14:14;;;;;;;2.00;1.20;;;4.00;99.90;;;5.39;100.00;94055.22;646392;212;31520;-75
2022/04/22 01:16:55;;;;;;;2.00;1.50;;;4.10;99.90;;;5.29;100.00;94061.02;647504;216;31581;-74
2022/04/22 01:19:41;;;;;;;2.80;1.50;;;4.10;99.90;;;5.33;100.00;94050.95;646503;216;31580;-73
2022/04/22 01:22:22;;;;;;;2.10;1.30;;;4.10;99.90;;;5.37;100.00;94050.05;647876;216;31613;-75
2022/04/22 01:25:05;;;;;;;1.92;1.65;;;4.10;99.90;;;5.12;100.00;94049.30;647561;216;31539;-75
2022/04/22 01:27:50;;;;;;;1.62;0.95;;;3.80;99.90;;;5.14;100.00;94042.31;646921;216;31538;-75
2022/04/22 01:30:31;;;;;;;1.83;1.40;;;3.80;99.90;;;5.00;100.00;94035.68;646593;212;32004;-74
2022/04/22 01:35:57;;;;;;;2.10;1.40;;;3.70;99.90;;;4.79;100.00;94041.67;647106;216;31645;-75
2022/04/22 01:38:44;;;;;;;1.62;0.90;;;3.60;99.90;;;4.83;100.00;94032.23;646856;212;31562;-75
2022/04/22 01:41:32;;;;;;;1.65;1.17;;;3.60;99.90;;;4.69;100.00;94023.27;646859;216;31516;-74
2022/04/22 01:44:20;;;;;;;1.23;1.20;;;3.40;99.90;;;4.60;100.00;94024.90;647413;216;31545;-74
2022/04/22 01:47:05;;;;;;;1.70;1.00;;;3.40;99.90;;;4.49;100.00;94026.37;619424;226;31851;-74
2022/04/22 01:49:47;;;;;;;1.40;1.10;;;3.30;99.90;;;4.51;100.00;94025.63;647386;216;31518;-74
2022/04/22 01:52:29;;;;;;;1.60;1.30;;;3.30;99.90;;;4.44;100.00;94015.98;647436;216;31516;-75
2022/04/22 01:55:10;;;;;;;2.92;1.42;;;3.30;99.90;;;4.36;100.00;94015.36;647283;216;32141;-76
2022/04/22 01:57:53;;;;;;;0.80;0.80;;;3.20;99.90;;;4.32;100.00;94011.96;647623;216;31958;-75
2022/04/22 02:00:33;;;;;;;1.48;1.37;;;3.20;99.90;;;4.36;100.00;94008.97;646329;216;31522;-74
2022/04/22 02:03:15;;;;;;;1.25;0.90;;;3.20;99.90;;;4.36;100.00;94014.19;620354;222;31862;-76
2022/04/22 02:05:58;;;;;;;1.20;0.90;;;3.10;99.90;;;4.27;100.00;94014.33;647822;216;31559;-75
2022/04/22 02:08:42;;;;;;;1.83;1.25;;;3.00;99.90;;;4.25;100.00;94021.30;647584;212;31547;-75
2022/04/22 02:11:25;;;;;;;1.35;1.15;;;3.00;99.90;;;4.21;100.00;94011.30;647338;216;31572;-74
2022/04/22 02:14:08;;;;;;;2.33;1.50;;;3.00;99.90;;;4.32;100.00;94011.20;646978;216;31537;-76
2022/04/22 02:16:49;;;;;;;1.80;1.52;;;3.10;99.90;;;4.40;100.00;94007.59;647603;216;31548;-74
2022/04/22 02:19:30;;;;;;;1.30;1.20;;;3.30;99.90;;;4.50;100.00;94004.63;618316;226;31913;-74
2022/04/22 02:22:14;;;;;;;1.98;1.87;;;3.40;99.90;;;4.58;100.00;93994.98;647312;212;31581;-75
2022/04/22 02:24:56;;;;;;;1.70;0.93;;;3.40;99.90;;;4.64;100.00;93996.09;648349;216;31582;-74
2022/04/22 02:30:24;;;;;;;3.20;1.20;;;3.50;99.90;;;4.66;100.00;93985.91;646668;216;31608;-75
2022/04/22 02:35:53;;;;;;;2.50;2.12;;;3.20;99.90;;;4.14;100.00;93990.00;647515;216;31605;-75
2022/04/22 02:38:36;;;;;;;1.45;0.88;;;3.00;99.90;;;4.04;100.00;93986.84;647076;216;31572;-73
2022/04/22 02:46:52;;;;;;;1.52;0.82;;;2.70;99.90;;;4.05;100.00;93983.83;647208;216;31691;-74
2022/04/22 02:49:37;;;;;;;3.33;1.15;;;2.90;99.90;;;4.19;100.00;93980.98;648094;213;31552;-74
2022/04/22 02:52:18;;;;;;;2.35;1.05;;;3.10;99.90;;;4.34;100.00;93975.27;641578;217;31554;-74
2022/04/22 02:55:00;;;;;;;2.50;1.20;;;3.20;99.90;;;4.38;100.00;93972.48;647763;216;31759;-74
2022/04/22 02:57:43;;;;;;;2.00;1.40;;;3.30;99.90;;;4.38;100.00;93964.55;647133;216;31533;-76
2022/04/22 03:00:23;;;;;;;1.08;0.80;;;3.20;99.90;;;4.22;100.00;93969.00;647597;216;31581;-75
2022/04/22 03:03:05;;;;;;;2.80;1.50;;;2.90;99.90;;;3.91;100.00;93965.93;646937;212;31527;-73
2022/04/22 03:05:47;;;;;;;2.20;1.00;;;2.70;99.90;;;3.79;100.00;93965.77;647299;214;31551;-74
2022/04/22 03:08:29;;;;;;;1.40;1.10;;;2.50;99.90;;;3.64;100.00;93961.22;638087;212;32340;-73
2022/04/22 03:11:10;;;;;;;1.30;0.90;;;2.40;99.90;;;3.70;100.00;93960.88;647019;216;31589;-75
2022/04/22 03:13:52;;;;;;;3.47;1.45;;;2.50;99.90;;;3.72;100.00;93954.98;648197;212;31507;-74
2022/04/22 03:16:37;;;;;;;3.00;1.00;;;2.40;99.90;;;3.71;100.00;93954.64;619280;222;31888;-75
2022/04/22 03:19:18;;;;;;;2.00;1.80;;;2.50;99.90;;;3.75;100.00;93950.85;647283;212;42398;-75
2022/04/22 03:22:00;;;;;;;2.05;1.95;;;2.60;1.40;;;3.63;100.00;93950.20;620135;222;31890;-74
2022/04/22 03:24:42;;;;;;;1.50;1.20;;;2.50;1.40;;;3.53;100.00;93948.70;620435;225;31909;-74
2022/04/22 03:27:24;;;;;;;2.80;1.87;;;2.40;1.40;;;3.53;100.00;93948.82;648444;216;31586;-75
2022/04/22 03:30:07;;;;;;;1.60;1.50;;;2.40;1.40;;;3.45;100.00;93949.39;620293;226;32457;-74
2022/04/22 03:32:49;;;;;;;1.17;1.08;;;2.40;1.40;;;3.37;100.00;93943.18;646879;216;43041;-75
2022/04/22 03:35:51;;;;;;;1.48;1.25;;;2.30;1.40;;;3.33;100.00;93941.62;647396;216;31698;-74
2022/04/22 03:38:35;;;;;;;0.90;0.77;;;2.20;1.40;;;3.42;100.00;93937.07;647748;216;31508;-74
2022/04/22 03:41:16;;;;;;;3.05;1.35;;;2.20;1.40;;;3.32;100.00;93936.97;632384;221;31634;-75
2022/04/22 03:43:59;;;;;;;1.37;1.10;;;2.20;1.40;;;3.36;100.00;93936.70;646300;212;31572;-75
2022/04/22 03:46:39;;;;;;;1.60;1.42;;;2.20;1.40;;;3.35;100.00;93934.58;647250;212;31570;-75
2022/04/22 03:49:21;;;;;;;1.40;1.10;;;2.20;1.40;;;3.29;100.00;93926.95;619653;222;31910;-74
2022/04/22 03:52:03;;;;;;;2.00;1.40;;;2.10;1.40;;;3.16;100.00;93920.48;648020;216;31584;-74
2022/04/22 03:54:44;;;;;;;1.90;0.70;;;2.00;1.40;;;3.05;100.00;93916.30;647916;212;31874;-74
2022/04/22 04:00:16;;;;;;;1.20;1.10;;;1.80;1.40;;;2.93;100.00;93917.59;646697;216;31658;-75
2022/04/22 04:02:58;;;;;;;2.70;2.03;;;1.80;1.40;;;2.92;100.00;93911.31;647508;212;31868;-73
2022/04/22 04:05:48;;;;;;;1.60;1.02;;;1.90;1.40;;;2.92;100.00;93909.22;646224;216;31590;-74
2022/04/22 04:08:30;;;;;;;0.70;0.70;;;1.80;1.40;;;2.95;100.00;93901.83;637787;216;31749;-74
2022/04/22 04:16:51;;;;;;;1.95;1.20;;;1.90;1.40;;;3.00;100.00;93902.88;647935;216;31654;-74
2022/04/22 04:25:08;;;;;;;1.40;1.30;;;1.80;1.40;;;2.93;100.00;93901.59;648531;216;31706;-75
2022/04/22 04:27:50;;;;;;;1.50;0.90;;;1.70;1.40;;;2.90;100.00;93898.05;620114;226;32067;-73
2022/04/22 04:30:32;;;;;;;0.60;0.60;;;1.70;1.40;;;2.89;100.00;93896.05;619183;226;32121;-74
2022/04/22 04:35:52;;;;;;;1.67;1.58;;;1.80;1.40;;;2.96;100.00;93901.98;646590;212;31594;-73
2022/04/22 04:38:34;;;;;;;1.48;1.10;;;1.90;1.40;;;3.01;100.00;93903.52;646576;216;31562;-73
2022/04/22 04:41:15;;;;;;;2.33;1.20;;;1.90;1.40;;;3.04;100.00;93909.93;646907;216;31633;-74
2022/04/22 04:43:57;;;;;;;3.15;1.92;;;2.00;1.40;;;3.14;100.00;93909.64;647102;212;31866;-73
2022/04/22 04:46:40;;;;;;;2.40;1.08;;;2.00;1.40;;;3.27;100.00;93911.34;647213;216;42225;-74
2022/04/22 04:49:21;;;;;;;0.90;0.90;;;2.10;1.40;;;3.33;100.00;93912.03;647441;216;31666;-75
2022/04/22 04:52:02;;;;;;;1.80;1.00;;;2.20;1.40;;;3.48;100.00;93916.66;646922;216;31531;-74
2022/04/22 04:54:46;;;;;;;2.55;1.20;;;2.30;1.40;;;3.65;100.00;93918.16;646551;216;32294;-74
2022/04/22 04:57:35;;;;;;;2.53;1.70;;;2.50;1.40;;;3.86;100.00;93916.05;645406;216;34209;-75
2022/04/22 05:00:20;;;;;;;2.50;1.60;;;2.70;1.40;;;4.08;100.00;93908.14;618436;226;32100;-74
2022/04/22 05:03:01;;;;;;;3.70;1.25;;;3.00;1.40;;;4.27;100.00;93909.47;647557;212;31643;-75
2022/04/22 05:05:42;;;;;;;1.20;1.10;;;3.10;1.40;;;4.50;100.00;93908.52;646868;212;31697;-73
2022/04/22 05:08:26;;;;;;;3.70;1.65;;;3.30;1.40;;;4.63;100.00;93907.38;637508;216;31676;-75
2022/04/22 05:11:06;;;;;;;1.30;1.10;;;3.50;1.40;;;4.81;100.00;93910.36;646763;216;31566;-74
2022/04/22 05:13:50;;;;;;;2.55;1.65;;;3.60;1.40;;;5.08;100.00;93909.41;646884;212;31560;-75
2022/04/22 05:16:37;;;;;;;3.00;2.20;;;3.70;1.40;;;5.29;100.00;93910.17;646273;216;31585;-77
2022/04/22 05:19:22;;;;;;;3.00;1.70;;;3.90;1.40;;;5.57;100.00;93912.41;647438;212;31532;-76
2022/04/22 05:22:04;;;;;;;4.82;1.83;;;4.10;1.40;;;5.61;100.00;93911.98;646012;212;32181;-77
2022/04/22 05:24:48;;;;;;;2.15;1.95;;;4.20;1.40;;;5.80;100.00;93910.69;648159;216;31598;-77
2022/04/22 05:27:36;;;;;;;2.08;1.20;;;4.30;1.40;;;5.86;100.00;93917.61;618931;226;31868;-75
2022/04/22 05:35:51;;;;;;;1.92;1.37;;;4.40;1.40;;;6.00;100.00;93910.59;647554;212;31588;-76
2022/04/22 05:38:35;;;;;;;5.30;1.77;;;4.40;1.40;;;6.08;100.00;93910.98;646834;216;32772;-75
2022/04/22 05:41:23;;;;;;;2.10;1.90;;;4.50;1.40;;;6.10;100.00;93907.02;647211;216;31579;-77
2022/04/22 05:44:05;;;;;;;1.90;1.80;;;4.50;1.40;;;6.21;100.00;93905.78;646404;212;31586;-76
2022/04/22 05:46:46;;;;;;;3.33;2.20;;;4.60;1.40;;;6.00;100.00;93910.37;648262;212;32271;-77
2022/04/22 05:49:30;;;;;;;3.58;3.28;;;4.60;1.40;;;5.99;100.00;93906.80;647360;216;31629;-74
2022/04/22 05:52:12;;;;;;;2.42;2.20;;;4.60;1.40;;;6.36;100.00;93905.30;645565;212;31586;-73
2022/04/22 05:54:58;;;;;;;3.87;2.95;;;4.80;1.40;;;6.25;100.00;93902.39;646681;212;31569;-75
2022/04/22 05:57:43;;;;;;;4.20;2.47;;;4.90;1.40;;;6.20;100.00;93897.20;648022;212;31561;-76
2022/04/22 06:00:31;;;;;;;3.53;1.87;;;4.90;1.40;;;6.17;100.00;93892.17;642192;217;42500;-75
2022/04/22 06:03:12;;;;;;;2.75;2.30;;;5.00;1.40;;;6.35;100.00;93889.73;646249;212;42259;-74
2022/04/22 06:06:00;;;;;;;3.95;3.35;;;5.10;1.40;;;6.26;100.00;93893.53;647380;216;31884;-76
2022/04/22 06:11:37;;;;;;;4.10;2.40;;;5.40;1.40;;;6.94;100.00;93891.58;647191;216;31824;-74
2022/04/22 06:14:19;;;;;;;3.67;3.37;;;5.50;1.40;;;6.89;100.00;93892.77;642903;214;31581;-74
2022/04/22 06:17:01;;;;;;;4.30;3.90;;;5.60;1.40;;;7.02;100.00;93888.18;646829;212;31636;-75
2022/04/22 06:19:44;;;;;;;5.50;3.20;;;5.70;1.40;;;7.03;100.00;93881.27;618766;222;32231;-75
2022/04/22 06:22:27;;;;;;;5.07;2.53;;;5.80;1.40;;;7.47;100.00;93881.81;619523;222;32727;-76
2022/04/22 06:25:15;;;;;;;4.90;3.00;;;6.10;1.40;;;7.62;100.00;93884.86;647677;216;31561;-74
2022/04/22 06:30:43;;;;;;;6.70;5.00;;;6.50;1.40;;;8.34;100.00;93887.27;646416;216;31490;-75
2022/04/22 06:35:57;;;;;;;4.68;3.55;;;6.70;1.40;;;8.39;100.00;93887.01;642216;216;31609;-75
2022/04/22 06:38:45;;;;;;;3.73;3.43;;;6.80;1.40;;;8.66;100.00;93885.68;646867;212;31819;-78
2022/04/22 06:47:07;;;;;;;4.63;3.97;;;7.40;1.40;;;9.54;100.00;93881.41;646259;216;31638;-75
2022/04/22 06:49:54;;;;;;;3.90;2.80;;;7.70;1.40;;;9.72;100.00;93886.88;646726;216;31573;-77
2022/04/22 06:52:42;;;;;;;4.60;3.57;;;7.70;1.40;;;9.47;100.00;93887.19;645439;216;32312;-75
2022/04/22 06:55:25;;;;;;;4.25;3.33;;;7.70;1.40;;;9.66;100.00;93880.91;618479;226;32049;-75
2022/04/22 06:58:07;;;;;;;6.10;3.80;;;7.80;1.40;;;9.91;100.00;93880.70;619704;226;32614;-76
2022/04/22 07:00:51;;;;;;;2.90;2.70;;;8.10;1.40;;;9.96;100.00;93882.00;647987;216;31538;-78
2022/04/22 07:03:34;;;;;;;9.15;4.80;;;7.90;1.40;;;10.15;100.00;93876.82;642187;217;31772;-75
2022/04/22 07:06:15;;;;;;;5.40;4.10;;;7.90;1.40;;;10.17;100.00;93870.30;645944;212;31564;-75
2022/04/22 07:08:57;;;;;;;3.80;3.00;;;8.10;1.40;;;10.31;100.00;93877.40;638460;216;32565;-75
2022/04/22 07:11:40;;;;;;;5.73;3.60;;;8.30;1.40;;;10.43;100.00;93878.81;647223;214;31567;-76
2022/04/22 07:14:21;;;;;;;4.30;3.75;;;8.30;1.40;;;10.69;100.00;93873.05;647151;216;31605;-76
2022/04/22 07:17:02;;;;;;;3.73;2.80;;;8.40;1.40;;;10.77;100.00;93868.30;647118;216;32151;-75
2022/04/22 07:22:22;;;;;;;4.50;3.90;;;8.50;1.40;;;10.91;100.00;93866.41;645577;212;31665;-75
2022/04/22 07:25:05;;;;;;;3.83;3.43;;;8.90;1.40;;;11.08;100.00;93862.39;646488;212;32321;-75
2022/04/22 07:27:46;;;;;;;4.75;3.58;;;8.90;1.40;;;10.70;100.00;93857.94;646548;212;31623;-76
2022/04/22 07:30:28;;;;;;;4.43;3.10;;;8.90;1.40;;;11.08;100.00;93856.17;618263;222;42575;-76
2022/04/22 07:35:57;;;;;;;6.40;3.30;;;9.30;1.40;;;11.85;100.00;93853.14;647343;216;31572;-75
2022/04/22 07:38:39;;;;;;;4.33;3.13;;;9.60;1.40;;;11.95;100.00;93846.41;647417;216;32065;-75
2022/04/22 07:41:20;;;;;;;7.22;3.62;;;9.50;1.40;;;11.78;100.00;93850.73;645578;216;31575;-75
2022/04/22 07:46:49;;;;;;;5.93;4.00;;;10.00;1.40;;;12.11;100.00;93844.61;648154;212;42184;-76
2022/04/22 07:49:32;;;;;;;4.07;3.67;;;9.90;1.40;;;11.10;100.00;93849.70;646504;216;33551;-77
2022/04/22 07:52:12;;;;;;;4.30;3.60;;;9.60;1.40;;;12.31;100.00;93841.36;645478;216;32117;-76
2022/04/22 07:54:54;;;;;;;3.50;3.07;;;10.20;1.40;;;11.85;100.00;93846.22;647597;212;31660;-75
2022/04/22 07:57:36;;;;;;;4.20;3.20;;;10.10;1.40;;;11.30;98.12;93842.55;621291;222;32177;-76
2022/04/22 08:00:26;;;;;;;3.20;2.90;;;9.70;1.40;;;12.16;100.00;93838.41;649337;212;31596;-78
2022/04/22 08:05:51;;;;;;;3.35;2.80;;;10.70;1.40;;;13.44;93.63;93834.16;646960;216;32464;-75
2022/04/22 08:08:33;;;;;;;4.10;3.00;;;11.00;1.40;;;13.62;89.62;93835.05;647257;216;32022;-75
2022/04/22 08:11:15;;;;;;;3.08;2.78;;;11.00;1.40;;;13.55;87.90;93834.95;646712;216;31589;-75
2022/04/22 08:13:59;;;;;;;3.93;2.80;;;11.50;1.40;;;14.29;86.23;93833.77;646477;216;31715;-75
2022/04/22 08:16:41;;;;;;;4.33;3.60;;;12.00;1.40;;;14.38;86.48;93831.10;647441;216;31775;-75
2022/04/22 08:19:23;;;;;;;4.20;3.70;;;12.20;1.40;;;14.82;83.20;93827.96;646355;216;31586;-75
2022/04/22 08:22:04;;;;;;;3.17;2.83;;;12.10;1.40;;;14.91;81.47;93828.83;618528;226;42578;-76
2022/04/22 08:24:47;;;;;;;3.72;3.10;;;12.10;1.40;;;14.08;83.30;93836.58;619346;222;31995;-75
2022/04/22 08:27:34;;;;;;;6.95;3.95;;;12.20;1.40;;;14.59;84.69;93834.77;644178;215;42180;-79
2022/04/22 08:30:22;;;;;;;4.25;3.17;;;12.30;1.40;;;14.75;81.03;93836.31;619551;226;42568;-77
2022/04/22 08:35:51;;;;;;;3.22;2.92;;;12.30;1.40;;;15.13;78.87;93837.00;646253;216;31629;-75
2022/04/22 08:38:33;;;;;;;5.68;2.90;;;12.30;1.40;;;14.22;80.28;93841.28;646883;216;42823;-77
2022/04/22 08:41:15;;;;;;;3.90;3.30;;;12.10;1.40;;;14.63;80.27;93843.89;647129;216;31612;-75
2022/04/22 08:43:59;;;;;;;4.18;3.78;;;12.50;1.40;;;14.80;80.50;93837.73;645943;216;31567;-76
2022/04/22 08:52:21;;;;;;;4.07;3.37;;;14.00;1.40;;;14.02;77.30;93849.91;621155;226;32053;-79
2022/04/22 08:55:09;;;;;;;4.70;4.00;;;11.90;1.40;;;13.74;86.82;93843.06;646489;216;31606;-76
2022/04/22 08:57:51;;;;;;;6.78;4.10;;;12.10;1.40;;;13.79;80.45;93842.98;646614;216;31554;-75
2022/04/22 09:00:34;;;;;;;4.30;3.50;;;12.40;1.40;;;14.68;81.52;93842.48;646073;216;32004;-75
2022/04/22 09:03:15;;;;;;;5.60;3.78;;;13.20;1.40;;;15.90;76.96;93834.20;619246;226;31868;-77
2022/04/22 09:05:57;;;;;;;4.20;3.77;;;14.00;1.40;;;15.89;73.64;93829.52;646889;216;32362;-76
2022/04/22 09:08:39;;;;;;;4.00;3.37;;;14.70;1.40;;;17.02;72.48;93830.15;639806;216;31733;-75
2022/04/22 09:11:24;;;;;;;4.75;3.50;;;15.30;1.40;;;16.96;72.55;93832.89;645264;216;31615;-76
2022/04/22 09:14:08;;;;;;;4.37;3.30;;;15.50;1.40;;;17.20;68.00;93834.18;645799;216;31601;-77
2022/04/22 09:16:50;;;;;;;3.78;3.40;;;15.20;1.40;;;16.26;67.03;93830.84;620253;226;31864;-75
2022/04/22 09:19:35;;;;;;;3.45;3.12;;;14.60;1.40;;;17.01;73.26;93829.22;646721;216;31543;-76
2022/04/22 09:22:21;;;;;;;4.60;3.97;;;16.40;1.40;;;17.25;61.77;93827.05;647789;216;31581;-76
2022/04/22 09:25:05;;;;;;;3.57;3.10;;;16.00;1.40;;;18.61;65.33;93821.31;646861;216;31645;-76
2022/04/22 09:27:45;;;;;;;4.15;3.40;;;17.90;1.40;;;21.41;54.79;93817.18;618075;226;32481;-76
2022/04/22 09:30:30;;;;;;;4.10;3.62;;;20.00;1.40;;;19.68;59.54;93824.48;647303;216;31740;-76
2022/04/22 09:45:10;;;;;;;4.87;4.05;;;16.10;1.40;;;20.05;57.95;93818.77;646584;212;31619;-78
2022/04/22 09:47:57;;;;;;;4.30;3.75;;;17.30;1.40;;;21.00;52.97;93815.98;647626;216;31930;-76
2022/04/22 09:50:39;;;;;;;4.97;3.70;;;17.40;1.40;;;16.61;63.18;93828.58;646309;216;31602;-77
2022/04/22 09:55:59;;;;;;;5.70;3.60;;;15.80;1.40;;;20.46;54.91;93812.43;647352;212;34694;-76
2022/04/22 09:58:41;;;;;;;4.30;3.70;;;18.00;1.40;;;21.80;50.19;93807.84;646145;216;31597;-77
2022/04/22 10:01:23;;;;;;;6.72;4.00;;;17.90;1.40;;;21.12;51.63;93812.30;619169;226;31913;-76
2022/04/22 10:04:04;;;;;;;4.35;3.95;;;17.70;1.40;;;22.08;49.14;93805.94;619302;225;31891;-76
2022/04/22 10:06:46;;;;;;;4.28;3.70;;;18.70;1.40;;;22.62;47.71;93808.29;646736;216;31617;-76
2022/04/22 10:09:28;;;;;;;4.45;3.33;;;18.60;1.40;;;22.35;47.04;93805.17;647447;216;31657;-76
2022/04/22 10:14:46;;;;;;;4.50;3.90;;;19.10;1.40;;;21.85;48.57;93805.44;645790;215;33586;-76
2022/04/22 10:17:28;;;;;;;4.12;3.42;;;19.00;1.40;;;23.20;46.15;93802.78;645473;216;31600;-77
2022/04/22 10:20:11;;;;;;;5.30;4.00;;;20.20;1.40;;;24.55;44.11;93800.66;647743;212;31586;-77
2022/04/22 10:22:52;;;;;;;4.10;3.70;;;22.00;1.40;;;25.24;42.69;93797.39;646625;216;31555;-78
2022/04/22 10:25:40;;;;;;;4.00;3.40;;;21.20;1.40;;;24.56;41.09;93804.52;621684;226;32424;-78
2022/04/22 10:28:28;;;;;;;5.22;3.65;;;20.30;1.40;;;25.00;42.02;93796.54;647612;216;31725;-76
2022/04/22 10:31:09;;;;;;;3.90;3.60;;;20.10;1.40;;;25.42;40.35;93794.27;647649;216;31563;-76
2022/04/22 10:35:51;;;;;;;4.20;3.05;;;22.90;99.90;;;27.57;38.52;93788.59;648330;216;35645;-77
2022/04/22 10:38:37;;;;;;;4.50;3.80;;;23.70;99.90;;;27.06;38.25;93793.68;647272;213;31706;-78
2022/04/22 10:41:18;;;;;;;4.45;3.80;;;21.50;1.40;;;27.22;37.29;93791.66;647660;212;31824;-77
2022/04/22 10:49:44;;;;;;;3.93;3.50;;;22.70;99.90;;;26.12;38.61;93793.11;647261;212;31852;-73
2022/04/22 10:52:25;;;;;;;6.00;3.70;;;23.20;99.90;;;28.72;35.44;93788.26;620486;226;31892;-74
2022/04/22 10:55:07;;;;;;;4.20;3.80;;;23.70;99.90;;;29.02;35.36;93782.94;646447;212;31602;-74
2022/04/22 10:57:52;;;;;;;4.95;4.45;;;23.10;99.90;;;27.91;34.85;93785.39;646571;216;31601;-74
2022/04/22 11:00:34;;;;;;;5.20;4.70;;;21.30;99.90;;;26.33;35.95;93792.51;646820;216;31557;-74
2022/04/22 11:03:20;;;;;;;4.62;4.22;;;20.60;99.90;;;25.93;36.96;93786.30;646379;216;31575;-75
2022/04/22 11:06:02;;;;;;;4.55;4.15;;;20.90;99.90;;;27.40;35.58;93784.69;647504;216;42193;-73
2022/04/22 11:08:44;;;;;;;4.57;3.90;;;22.90;99.90;;;24.99;35.83;93791.77;617675;226;32153;-75
2022/04/22 11:11:26;;;;;;;8.90;4.20;;;21.20;99.90;;;22.52;39.54;93800.65;620589;226;31907;-79
2022/04/22 11:14:18;;;;;;;4.07;3.67;;;19.70;1.40;;;26.08;37.88;93790.81;617956;222;32609;-76
2022/04/22 11:17:25;;;;;;;4.70;4.30;;;21.30;99.90;;;24.93;36.19;93796.84;618144;222;31932;-76
2022/04/22 11:20:08;;;;;;;4.87;4.37;;;20.50;99.90;;;20.59;45.17;93805.58;647611;216;31570;-76
2022/04/22 11:22:57;;;;;;;4.90;4.40;;;17.80;1.40;;;18.46;47.68;93811.00;648425;216;31658;-76
2022/04/22 11:28:16;;;;;;;4.70;4.20;;;15.10;99.90;;;17.08;56.46;93815.24;646464;212;31715;-76
2022/04/22 11:30:58;;;;;;;5.25;3.83;;;16.20;1.40;;;19.65;49.75;93812.56;646296;216;31712;-77
2022/04/22 11:35:53;;;;;;;3.83;3.50;;;18.00;1.40;;;22.94;43.40;93803.80;646173;216;31712;-76
2022/04/22 11:38:33;;;;;;;6.90;3.80;;;19.20;99.90;;;23.86;41.13;93807.48;647114;216;31872;-77
2022/04/22 11:41:18;;;;;;;4.95;3.83;;;19.90;99.90;;;22.41;43.78;93806.05;647577;216;31599;-77
2022/04/22 11:44:00;;;;;;;5.97;4.90;;;19.50;1.40;;;24.33;40.87;93804.36;647259;216;31736;-76
2022/04/22 11:46:43;;;;;;;4.45;3.80;;;20.10;1.40;;;23.95;41.32;93803.89;647112;216;31570;-77
2022/04/22 11:49:23;;;;;;;4.37;3.97;;;20.00;1.40;;;23.04;43.82;93800.59;645663;216;31620;-76
2022/04/22 11:52:05;;;;;;;5.50;4.40;;;19.70;1.40;;;21.35;45.82;93810.69;646390;216;31847;-77
2022/04/22 11:54:47;;;;;;;5.05;4.55;;;18.80;1.40;;;22.73;42.01;93803.77;646876;212;31554;-77
2022/04/22 11:57:29;;;;;;;5.28;4.78;;;19.20;1.40;;;24.64;41.58;93801.95;646993;212;31607;-77
2022/04/22 12:05:48;;;;;;;4.50;3.80;;;17.30;1.40;;;23.47;43.46;93803.95;647259;216;32077;-75
2022/04/22 12:08:29;;;;;;;6.87;4.18;;;20.90;1.40;;;27.51;37.07;93787.84;639847;216;31856;-76
2022/04/22 12:11:11;;;;;;;4.50;4.10;;;22.90;99.90;;;24.10;38.77;93798.77;646649;216;31595;-76
2022/04/22 12:13:53;;;;;;;6.10;4.40;;;20.00;1.40;;;24.51;38.46;93802.91;647504;216;31572;-76
2022/04/22 12:16:35;;;;;;;4.22;3.83;;;19.00;1.40;;;22.20;43.44;93809.27;645532;216;31818;-76
2022/04/22 12:19:24;;;;;;;4.97;4.47;;;18.50;1.40;;;22.58;41.58;93804.87;648055;212;31722;-78
2022/04/22 12:22:06;;;;;;;4.35;3.67;;;18.90;1.40;;;24.54;40.01;93803.42;621029;226;31870;-79
2022/04/22 12:25:06;;;;;;;4.22;3.78;;;20.20;1.40;;;25.87;37.57;93790.68;646880;212;32779;-76
2022/04/22 12:28:04;;;;;;;4.47;3.85;;;20.60;99.90;;;27.05;36.30;93792.57;647751;216;31969;-76
2022/04/22 12:30:52;;;;;;;4.43;3.92;;;21.50;99.90;;;26.87;36.25;93792.11;647802;212;31724;-78
2022/04/22 12:36:02;;;;;;;5.05;4.55;;;21.40;99.90;;;27.70;35.99;93790.73;646882;216;35288;-76
2022/04/22 12:38:44;;;;;;;5.72;4.28;;;22.20;99.90;;;26.72;36.74;93783.30;647650;212;31757;-75
2022/04/22 12:41:25;;;;;;;5.05;4.55;;;21.00;1.40;;;23.89;39.33;93794.32;647170;216;31574;-76
2022/04/22 12:44:07;;;;;;;4.75;4.25;;;20.00;1.40;;;22.97;41.21;93795.40;646343;216;31559;-75
2022/04/22 12:52:24;;;;;;;4.40;4.00;;;21.20;99.90;;;26.18;35.04;93789.19;647463;216;42443;-74
2022/04/22 12:55:08;;;;;;;5.47;4.60;;;21.00;1.40;;;25.60;38.60;93788.27;646237;216;31777;-76
2022/04/22 12:57:47;;;;;;;5.03;3.92;;;21.20;99.90;;;22.82;39.57;93797.70;647784;216;42214;-75
2022/04/22 13:00:29;;;;;;;6.40;4.40;;;19.60;1.40;;;22.24;41.97;93796.67;646172;216;32706;-76
2022/04/22 13:03:11;;;;;;;5.97;3.90;;;19.50;99.90;;;22.09;43.00;93797.95;647130;216;32004;-75
2022/04/22 13:05:52;;;;;;;4.40;4.00;;;18.80;99.90;;;23.92;39.30;93797.53;645629;216;31895;-75
2022/04/22 13:08:34;;;;;;;4.20;3.83;;;20.00;99.90;;;24.05;39.12;93799.84;640542;216;31777;-75
2022/04/22 13:11:16;;;;;;;7.53;4.20;;;19.90;99.90;;;26.01;36.94;93787.15;645803;212;42164;-76
2022/04/22 13:13:59;;;;;;;4.60;4.10;;;20.00;99.90;;;26.46;36.02;93787.67;646669;216;31542;-75
2022/04/22 13:16:40;;;;;;;5.20;4.68;;;20.70;99.90;;;23.57;39.21;93798.97;646677;216;31581;-76
2022/04/22 13:19:22;;;;;;;5.57;5.07;;;19.60;1.40;;;25.58;37.03;93782.22;646834;216;31546;-75
2022/04/22 13:22:04;;;;;;;5.70;4.03;;;19.80;1.40;;;23.72;40.29;93790.14;646167;216;31554;-75
2022/04/22 13:24:45;;;;;;;4.12;3.72;;;19.50;1.40;;;22.77;42.27;93795.05;646294;216;31777;-75
2022/04/22 13:27:27;;;;;;;4.22;3.70;;;18.80;99.90;;;23.86;40.09;93794.69;646189;216;31842;-76
2022/04/22 13:30:10;;;;;;;6.20;4.40;;;20.00;99.90;;;24.99;37.03;93785.94;646209;216;31830;-75
2022/04/22 13:32:52;;;;;;;5.50;4.28;;;20.60;99.90;;;22.25;40.17;93796.08;646727;216;31994;-75
2022/04/22 13:35:51;;;;;;;8.55;4.50;;;18.90;99.90;;;22.07;42.87;93795.02;644692;216;43115;-75
2022/04/22 13:38:35;;;;;;;4.12;3.50;;;18.80;99.90;;;19.31;46.13;93809.14;646708;216;31816;-75